AV - LB | Pilotos de la V.A




 METAR AND TAF INFORMATION
METAR FOR LOWI
ADDS - METARS form results

(1304 UTC 17 January 2021)
Data provider http://aviationweather.gov/metar/data/
 
METAR text: LOWI 171250Z 27003KT 1500 R08/P1500D R26/P1500D -SN BR VV017 M05/M06 Q1017 R08/19//95 TEMPO 1200 SN VV010
Conditions at: LOWI (INNSBRUCK AIRPOR, AT) observed 1250 UTC 17 January 2021
Temperature: -5.0°C (23°F)
Dewpoint: -6.0°C (21°F) [RH = 93%]
Pressure (altimeter): 30.03 inches Hg (1017.0 mb)
Winds: from the W (270 degrees) at 3 MPH (3 knots; 1.5 m/s)
Visibility: 0.93 miles (1.50 km)
Ceiling: indefinite ceiling with vertical visibility of 1700 feet AGL
Clouds: obscured sky
Weather: -SN BR  (light snow, mist)

METAR text: LOWI 171220Z 26003KT 2500 -SN BR FEW009 BKN020 M05/M07 Q1017 R08/19//95 TEMPO 4000
Conditions at: LOWI (INNSBRUCK AIRPOR, AT) observed 1220 UTC 17 January 2021
Temperature: -5.0°C (23°F)
Dewpoint: -7.0°C (19°F) [RH = 86%]
Pressure (altimeter): 30.03 inches Hg (1017.0 mb)
Winds: from the W (260 degrees) at 3 MPH (3 knots; 1.5 m/s)
Visibility: 1.55 miles (2.49 km)
Ceiling: 2000 feet AGL
Clouds: few clouds at 900 feet AGL
broken clouds at 2000 feet AGL
Weather: -SN BR  (light snow, mist)

Forecast for: LOWI (INNSBRUCK AIRPOR, AT)
Text: TAF LOWI 171115Z 1712/1812 27003KT 5000 -SN FEW010 BKN040 TXM00/1812Z TNM05/1712Z
Forecast period: 1200 UTC 17 January 2021 to 1200 UTC 18 January 2021
Forecast type: FROM: standard forecast or significant change
Winds: from the W (270 degrees) at 3 MPH (3 knots; 1.5 m/s)
Visibility: 3 miles (5 km)
Ceiling: 4000 feet AGL
Clouds: few clouds at 1000 feet AGL
broken clouds at 4000 feet AGL
Weather: -SN  (light snow)
Text: TEMPO 1712/1806 1200 SN VV010
Forecast period: 1200 UTC 17 January 2021 to 0600 UTC 18 January 2021
Forecast type: TEMPORARY: The following changes expected for less than half the time period
Visibility: 0.75 miles (1.21 km)
Ceiling: indefinite ceiling with vertical visibility of 1000 feet AGL
Clouds: obscured sky
Weather: SN  (moderate snow)
Text: TEMPO 1806/1810 BKN009
Forecast period: 0600 to 1000 UTC 18 January 2021
Forecast type: TEMPORARY: The following changes expected for less than half the time period
Visibility: missing
Ceiling: 900 feet AGL
Clouds: broken clouds at 900 feet AGL
Weather: no significant weather forecast for this period

 AIRPORT MAP

 RUNWAY INFORMATION
Runway 08 Runway length 6562 ft Runway width 148 ft
Runway elevation 1906 ft Runway displaced threshold 339 ft Runway heading 81
Runway 26 Runway length 6562 ft Runway width 148 ft
Runway elevation 1893 ft Runway displaced threshold 198 ft Runway heading 261

 AIRPORT FREQUENCIES
Type APP Name APP Frequency 119.275 MHZ
Type ATIS Name ATIS Frequency 126.025 MHZ
Type GND Crew Name Frequency 121.8 MHZ
Type GND Crew Name Frequency 121.9 MHZ
Type TWR Name TWR Frequency 120.1 MHZ

 AIRPORT NEAR NAVIGATION AIDS
Type NDB Name Innsbruck Frequency 420 KHZ
Type NDB Name Kuhtai Frequency 413 KHZ